Time;durP1;ratioP1;P1;durP2;ratioP2;P2;SDS_P1;SDS_P2;PMS_P1;PMS_P2;Temp;Humidity;BMP_temperature;BMP_pressure;BME280_temperature;BME280_humidity;BME280_pressure;Samples;Min_cycle;Max_cycle;Signal;HPM_P1;HPM_P2
2022/09/29 03:01:49;;;;;;;;;;;4.80;99.90;;;;;;5515042;23;20351;-69
2022/09/29 03:04:16;;;;;;;;;;;4.80;99.90;;;;;;4969063;28;19926;-68
2022/09/29 03:06:42;;;;;;;;;;;4.80;99.90;;;;;;4964042;28;20021;-68
2022/09/29 03:09:09;;;;;;;;;;;4.70;99.90;;;;;;4970254;28;20363;-71
2022/09/29 03:11:35;;;;;;;;;;;4.70;99.90;;;;;;4962475;28;20428;-68
2022/09/29 03:14:02;;;;;;;;;;;4.70;99.90;;;;;;4953717;28;19934;-69
2022/09/29 03:16:29;;;;;;;;;;;4.70;99.90;;;;;;4954461;29;19993;-68
2022/09/29 03:18:57;;;;;;;;;;;4.60;99.90;;;;;;4956301;29;19974;-70
2022/09/29 03:21:24;;;;;;;;;;;4.60;99.90;;;;;;4954683;29;19931;-70
2022/09/29 03:23:50;;;;;;;;;;;4.60;99.90;;;;;;4954446;29;19926;-68
2022/09/29 03:26:17;;;;;;;;;;;4.60;99.90;;;;;;4954557;29;19939;-69
2022/09/29 03:28:44;;;;;;;;;;;4.60;99.90;;;;;;4954541;29;19926;-69
2022/09/29 03:31:11;;;;;;;;;;;4.60;99.90;;;;;;4953735;28;20401;-69
2022/09/29 03:33:38;;;;;;;;;;;4.60;99.90;;;;;;4954085;29;19926;-68
2022/09/29 03:36:07;;;;;;;;;;;4.60;99.90;;;;;;4954401;28;19926;-68
2022/09/29 03:38:34;;;;;;;;;;;4.60;99.90;;;;;;4968243;28;19926;-69
2022/09/29 03:41:01;;;;;;;;;;;4.60;99.90;;;;;;4953864;29;19926;-69
2022/09/29 03:43:28;;;;;;;;;;;4.60;99.90;;;;;;4953957;29;19942;-68
2022/09/29 03:45:55;;;;;;;;;;;4.60;99.90;;;;;;4954179;29;19934;-68
2022/09/29 03:48:22;;;;;;;;;;;4.60;99.90;;;;;;4954244;29;19930;-69
2022/09/29 03:50:50;;;;;;;;;;;4.60;99.90;;;;;;4953089;28;19930;-69
2022/09/29 03:53:18;;;;;;;;;;;4.50;99.90;;;;;;4953894;29;19930;-68
2022/09/29 03:55:45;;;;;;;;;;;4.50;99.90;;;;;;4953839;29;20290;-68
2022/09/29 03:58:12;;;;;;;;;;;4.50;99.90;;;;;;4953922;29;19938;-68
2022/09/29 04:00:39;;;;;;;;;;;4.50;99.90;;;;;;4953543;28;19934;-68
2022/09/29 04:03:05;;;;;;;;;;;4.50;99.90;;;;;;4953556;29;19926;-66
2022/09/29 04:05:33;;;;;;;;;;;4.40;99.90;;;;;;4953967;28;20421;-71
2022/09/29 04:08:00;;;;;;;;;;;4.40;99.90;;;;;;4953862;29;20359;-73
2022/09/29 04:10:28;;;;;;;;;;;4.40;99.90;;;;;;4953407;29;19954;-71
2022/09/29 04:12:55;;;;;;;;;;;4.40;99.90;;;;;;4953362;28;19927;-70
2022/09/29 04:15:22;;;;;;;;;;;4.40;99.90;;;;;;4953689;29;19942;-70
2022/09/29 04:17:48;;;;;;;;;;;4.40;99.90;;;;;;4953012;29;19926;-71
2022/09/29 04:20:15;;;;;;;;;;;4.40;99.90;;;;;;4953937;29;19937;-70
2022/09/29 04:22:42;;;;;;;;;;;4.40;99.90;;;;;;4953520;28;20362;-71
2022/09/29 04:25:09;;;;;;;;;;;4.50;99.90;;;;;;4952820;28;19982;-72
2022/09/29 04:27:37;;;;;;;;;;;4.50;99.90;;;;;;4953568;29;19927;-71
2022/09/29 04:30:04;;;;;;;;;;;4.50;99.90;;;;;;4953097;29;19927;-70
2022/09/29 04:32:31;;;;;;;;;;;4.40;99.90;;;;;;4953160;29;19982;-69
2022/09/29 04:34:58;;;;;;;;;;;4.40;99.90;;;;;;4953701;29;19926;-69
2022/09/29 04:37:24;;;;;;;;;;;4.40;99.90;;;;;;4953565;29;19981;-69
2022/09/29 04:39:53;;;;;;;;;;;4.30;99.90;;;;;;4952847;29;19926;-70
2022/09/29 04:42:19;;;;;;;;;;;4.30;99.90;;;;;;4953029;28;20290;-70
2022/09/29 04:44:47;;;;;;;;;;;4.30;99.90;;;;;;4953556;29;19933;-71
2022/09/29 04:47:14;;;;;;;;;;;4.40;99.90;;;;;;4953436;29;19934;-70
2022/09/29 04:49:41;;;;;;;;;;;4.40;99.90;;;;;;4953083;29;20460;-70
2022/09/29 04:52:09;;;;;;;;;;;4.40;99.90;;;;;;4953094;28;19926;-69
2022/09/29 04:54:36;;;;;;;;;;;4.40;99.90;;;;;;4953094;29;20456;-70
2022/09/29 04:57:03;;;;;;;;;;;4.40;99.90;;;;;;4953234;29;19931;-70
2022/09/29 04:59:30;;;;;;;;;;;4.30;99.90;;;;;;4952992;29;19926;-70
2022/09/29 05:01:58;;;;;;;;;;;4.30;99.90;;;;;;4947869;29;19927;-72
2022/09/29 05:04:25;;;;;;;;;;;4.20;99.90;;;;;;4952411;29;20401;-70
2022/09/29 05:06:51;;;;;;;;;;;4.20;99.90;;;;;;4969080;28;19974;-71
2022/09/29 05:09:18;;;;;;;;;;;4.20;99.90;;;;;;4952644;29;19969;-70
2022/09/29 05:11:45;;;;;;;;;;;4.20;99.90;;;;;;4952435;28;20381;-70
2022/09/29 05:14:11;;;;;;;;;;;4.20;99.90;;;;;;4952676;29;19931;-71
2022/09/29 05:16:38;;;;;;;;;;;4.20;99.90;;;;;;4951859;29;19926;-69
2022/09/29 05:19:06;;;;;;;;;;;4.20;99.90;;;;;;4952170;29;19927;-70
2022/09/29 05:21:33;;;;;;;;;;;4.20;99.90;;;;;;4952651;29;20452;-68
2022/09/29 05:24:00;;;;;;;;;;;4.30;99.90;;;;;;4952666;29;19990;-69
2022/09/29 05:26:27;;;;;;;;;;;4.30;99.90;;;;;;4953012;29;19937;-68
2022/09/29 05:28:54;;;;;;;;;;;4.30;99.90;;;;;;4952805;29;19981;-69
2022/09/29 05:31:21;;;;;;;;;;;4.40;99.90;;;;;;4952715;28;19933;-71
2022/09/29 05:33:47;;;;;;;;;;;4.30;99.90;;;;;;4952377;29;19927;-69
2022/09/29 05:36:15;;;;;;;;;;;4.40;99.90;;;;;;4952245;28;20397;-68
2022/09/29 05:38:42;;;;;;;;;;;4.30;99.90;;;;;;4951540;29;19930;-69
2022/09/29 05:41:10;;;;;;;;;;;4.40;99.90;;;;;;4950860;28;20460;-70
2022/09/29 05:43:37;;;;;;;;;;;4.40;99.90;;;;;;4951905;29;19957;-69
2022/09/29 05:46:05;;;;;;;;;;;4.50;99.90;;;;;;4952633;29;19927;-68
2022/09/29 05:48:32;;;;;;;;;;;4.50;99.90;;;;;;4952829;29;19941;-71
2022/09/29 05:50:59;;;;;;;;;;;4.60;99.90;;;;;;4952241;28;19978;-68
2022/09/29 05:53:27;;;;;;;;;;;4.70;99.90;;;;;;4952117;29;19930;-71
2022/09/29 05:55:54;;;;;;;;;;;4.70;99.90;;;;;;4952033;29;19927;-69
2022/09/29 05:58:21;;;;;;;;;;;4.70;99.90;;;;;;4952090;29;19930;-69
2022/09/29 06:00:48;;;;;;;;;;;4.70;99.90;;;;;;4941339;29;20298;-68
2022/09/29 06:03:15;;;;;;;;;;;4.80;99.90;;;;;;4932820;29;19934;-69
2022/09/29 06:05:42;;;;;;;;;;;4.80;99.90;;;;;;4933290;29;20461;-69
2022/09/29 06:08:09;;;;;;;;;;;4.90;99.90;;;;;;4933251;29;19927;-68
2022/09/29 06:10:37;;;;;;;;;;;4.90;99.90;;;;;;4936458;29;20013;-69
2022/09/29 06:13:04;;;;;;;;;;;5.10;99.90;;;;;;4952285;29;19926;-68
2022/09/29 06:15:31;;;;;;;;;;;5.10;99.90;;;;;;4952325;29;19931;-67
2022/09/29 06:17:58;;;;;;;;;;;5.10;99.90;;;;;;4952104;29;19926;-67
2022/09/29 06:20:25;;;;;;;;;;;5.20;99.90;;;;;;4951355;29;19927;-67
2022/09/29 06:22:53;;;;;;;;;;;5.20;99.90;;;;;;4951758;28;19926;-68
2022/09/29 06:25:20;;;;;;;;;;;5.30;99.90;;;;;;4951951;29;19949;-69
2022/09/29 06:27:48;;;;;;;;;;;5.40;99.90;;;;;;4952125;29;19927;-68
2022/09/29 06:30:15;;;;;;;;;;;5.40;99.90;;;;;;4951857;28;19927;-67
2022/09/29 06:32:42;;;;;;;;;;;5.50;99.90;;;;;;4951677;28;19927;-68
2022/09/29 06:37:55;;;;;;;;;;;5.60;99.90;;;;;;4932542;29;19923;-69
2022/09/29 06:40:23;;;;;;;;;;;5.70;99.90;;;;;;4932537;29;20398;-68
2022/09/29 06:42:51;;;;;;;;;;;5.80;99.90;;;;;;4932415;29;19966;-68
2022/09/29 06:45:18;;;;;;;;;;;5.90;99.90;;;;;;4932698;29;19927;-68
2022/09/29 06:47:45;;;;;;;;;;;5.90;99.90;;;;;;4932618;29;19927;-69
2022/09/29 06:50:12;;;;;;;;;;;6.00;99.90;;;;;;4935819;29;19946;-68
2022/09/29 06:52:39;;;;;;;;;;;6.10;99.90;;;;;;4935739;29;19978;-67
2022/09/29 06:55:06;;;;;;;;;;;6.20;99.90;;;;;;4936011;29;19931;-68
2022/09/29 06:57:33;;;;;;;;;;;6.30;99.90;;;;;;4936317;29;19950;-68
2022/09/29 07:00:01;;;;;;;;;;;6.40;99.90;;;;;;4935734;29;19934;-68
2022/09/29 07:02:28;;;;;;;;;;;6.50;99.90;;;;;;4935647;29;19931;-69
2022/09/29 07:04:55;;;;;;;;;;;6.70;99.90;;;;;;4936190;29;19935;-68
2022/09/29 07:07:21;;;;;;;;;;;6.80;99.90;;;;;;4936093;29;19926;-68
2022/09/29 07:09:48;;;;;;;;;;;6.90;99.90;;;;;;4935813;29;19927;-69
2022/09/29 07:12:15;;;;;;;;;;;7.00;99.90;;;;;;4952348;28;19952;-68
2022/09/29 07:14:42;;;;;;;;;;;7.10;99.90;;;;;;4955238;29;19927;-68
2022/09/29 07:17:12;;;;;;;;;;;7.20;99.90;;;;;;4937068;29;19986;-70
2022/09/29 07:19:39;;;;;;;;;;;7.30;99.90;;;;;;4935783;29;19970;-70
2022/09/29 07:22:08;;;;;;;;;;;7.40;99.90;;;;;;4935681;29;19934;-69
2022/09/29 07:24:35;;;;;;;;;;;7.50;99.90;;;;;;4935643;29;19927;-70
2022/09/29 07:27:02;;;;;;;;;;;7.60;99.90;;;;;;4935488;29;20357;-69
2022/09/29 07:29:31;;;;;;;;;;;7.70;99.90;;;;;;4935170;29;19930;-67
2022/09/29 07:31:58;;;;;;;;;;;7.80;99.90;;;;;;4937909;29;19935;-69
2022/09/29 07:34:26;;;;;;;;;;;7.90;99.90;;;;;;4946436;29;19926;-68
2022/09/29 07:36:53;;;;;;;;;;;8.00;99.90;;;;;;4951453;29;20394;-68
2022/09/29 07:39:21;;;;;;;;;;;8.10;99.90;;;;;;4935236;29;20315;-68
2022/09/29 07:41:48;;;;;;;;;;;8.20;99.90;;;;;;4935355;29;20383;-70
2022/09/29 07:44:14;;;;;;;;;;;8.30;99.90;;;;;;4935260;29;20302;-68
2022/09/29 07:46:41;;;;;;;;;;;8.40;99.90;;;;;;4935580;29;19933;-68
2022/09/29 07:49:08;;;;;;;;;;;8.50;99.90;;;;;;4935123;29;19930;-67
2022/09/29 07:51:36;;;;;;;;;;;8.60;99.90;;;;;;4935320;29;19934;-68
2022/09/29 07:54:04;;;;;;;;;;;8.70;99.90;;;;;;4934314;29;19927;-67
2022/09/29 07:56:31;;;;;;;;;;;8.80;99.90;;;;;;4935516;29;19927;-67
2022/09/29 07:58:58;;;;;;;;;;;8.90;99.90;;;;;;4935263;29;19926;-68
2022/09/29 08:01:25;;;;;;;;;;;8.90;99.90;;;;;;4934128;29;19931;-68
2022/09/29 08:03:52;;;;;;;;;;;9.00;99.90;;;;;;4935233;29;19934;-70
2022/09/29 08:06:19;;;;;;;;;;;9.10;99.90;;;;;;4935230;29;19927;-69
2022/09/29 08:08:48;;;;;;;;;;;9.20;99.90;;;;;;4935032;29;20478;-69
2022/09/29 08:11:16;;;;;;;;;;;9.30;99.90;;;;;;4965712;28;19927;-68
2022/09/29 08:13:42;;;;;;;;;;;9.40;99.90;;;;;;4954057;29;19927;-69
2022/09/29 08:16:11;;;;;;;;;;;9.50;99.90;;;;;;4986615;28;19933;-67
2022/09/29 08:18:38;;;;;;;;;;;9.60;99.90;;;;;;4954116;29;19934;-68
2022/09/29 08:21:06;;;;;;;;;;;9.60;99.90;;;;;;4953783;29;19933;-68
2022/09/29 08:23:35;;;;;;;;;;;9.70;99.90;;;;;;4953575;29;19926;-70
2022/09/29 08:26:04;;;;;;;;;;;9.80;99.90;;;;;;4953711;29;19931;-68
2022/09/29 08:28:31;;;;;;;;;;;9.80;99.90;;;;;;4954073;29;19926;-67
2022/09/29 08:31:01;;;;;;;;;;;9.90;99.90;;;;;;4953735;29;20390;-68
2022/09/29 08:33:28;;;;;;;;;;;10.00;99.90;;;;;;4953313;29;20286;-68
2022/09/29 08:35:55;;;;;;;;;;;10.10;99.90;;;;;;4986001;28;19937;-67
2022/09/29 08:38:22;;;;;;;;;;;10.20;99.90;;;;;;4953834;29;19933;-67
2022/09/29 08:40:49;;;;;;;;;;;10.40;99.90;;;;;;4985662;28;19926;-68
2022/09/29 08:43:20;;;;;;;;;;;10.50;99.90;;;;;;4985506;28;19927;-69
2022/09/29 08:45:49;;;;;;;;;;;10.60;99.90;;;;;;4953427;29;19927;-69
2022/09/29 08:48:19;;;;;;;;;;;10.70;99.90;;;;;;4953281;29;19926;-69
2022/09/29 08:50:48;;;;;;;;;;;10.90;99.90;;;;;;4953175;29;19933;-69
2022/09/29 08:53:20;;;;;;;;;;;11.00;99.90;;;;;;4952802;29;19926;-68
2022/09/29 08:55:51;;;;;;;;;;;11.10;99.90;;;;;;4952929;29;19933;-68
2022/09/29 08:58:19;;;;;;;;;;;11.20;99.90;;;;;;4953055;29;19985;-69
2022/09/29 09:00:50;;;;;;;;;;;11.30;99.90;;;;;;4953063;29;19977;-68
2022/09/29 09:03:41;;;;;;;;;;;11.50;99.90;;;;;;4953029;29;19930;-68
2022/09/29 09:06:14;;;;;;;;;;;11.60;99.90;;;;;;4938928;29;19926;-68
2022/09/29 09:08:50;;;;;;;;;;;11.70;99.90;;;;;;4952941;29;20043;-70
2022/09/29 09:11:26;;;;;;;;;;;11.90;99.90;;;;;;4952815;28;19926;-67
2022/09/29 09:14:03;;;;;;;;;;;12.00;99.90;;;;;;4952629;29;19926;-68
2022/09/29 09:16:36;;;;;;;;;;;12.10;99.90;;;;;;4953215;29;20130;-70
2022/09/29 09:19:06;;;;;;;;;;;12.30;99.90;;;;;;4952727;29;20293;-68
2022/09/29 09:21:37;;;;;;;;;;;12.40;99.90;;;;;;4953049;28;19926;-68
2022/09/29 09:24:08;;;;;;;;;;;12.30;99.90;;;;;;4952644;29;19930;-70
2022/09/29 09:26:37;;;;;;;;;;;12.40;99.90;;;;;;4953018;29;19927;-68
2022/09/29 09:29:11;;;;;;;;;;;12.40;99.90;;;;;;4952436;29;19938;-69
2022/09/29 09:31:39;;;;;;;;;;;12.50;99.90;;;;;;4952012;28;20363;-68
2022/09/29 09:34:10;;;;;;;;;;;12.60;99.90;;;;;;4952645;29;19934;-67
2022/09/29 09:36:40;;;;;;;;;;;12.70;99.90;;;;;;4952734;29;19926;-68
2022/09/29 09:39:12;;;;;;;;;;;12.80;99.90;;;;;;4952327;29;19926;-70
2022/09/29 09:41:39;;;;;;;;;;;13.00;99.90;;;;;;4952059;29;20282;-70
2022/09/29 09:44:14;;;;;;;;;;;13.10;99.90;;;;;;4952028;29;19962;-68
2022/09/29 09:46:43;;;;;;;;;;;13.10;99.90;;;;;;4952690;29;19997;-68
2022/09/29 09:49:14;;;;;;;;;;;13.20;99.90;;;;;;4952290;29;19926;-68
2022/09/29 09:51:45;;;;;;;;;;;13.20;99.90;;;;;;4952326;28;19962;-68
2022/09/29 09:54:14;;;;;;;;;;;13.40;99.90;;;;;;4951509;29;19927;-71
2022/09/29 09:57:03;;;;;;;;;;;13.50;99.90;;;;;;4952140;29;20412;-69
2022/09/29 09:59:37;;;;;;;;;;;13.70;99.90;;;;;;4949458;29;20017;-68
2022/09/29 10:02:04;;;;;;;;;;;13.90;99.90;;;;;;4932999;29;20025;-69
2022/09/29 10:04:32;;;;;;;;;;;13.90;99.90;;;;;;4932533;29;19927;-68
2022/09/29 10:06:58;;;;;;;;;;;13.90;99.90;;;;;;4933337;29;19934;-69
2022/09/29 10:09:25;;;;;;;;;;;14.00;99.90;;;;;;4932585;29;20420;-68
2022/09/29 10:11:52;;;;;;;;;;;14.10;99.90;;;;;;4946686;28;19930;-68
2022/09/29 10:14:21;;;;;;;;;;;14.40;99.90;;;;;;4951956;29;19934;-67
2022/09/29 10:16:51;;;;;;;;;;;14.70;99.90;;;;;;4952091;29;19927;-68
2022/09/29 10:19:20;;;;;;;;;;;14.80;99.90;;;;;;4951956;29;19931;-69
2022/09/29 10:21:48;;;;;;;;;;;15.10;99.90;;;;;;4952109;29;19927;-70
2022/09/29 10:24:27;;;;;;;;;;;15.20;99.90;;;;;;4951488;29;19930;-70
2022/09/29 10:26:55;;;;;;;;;;;15.50;99.90;;;;;;4952291;29;20390;-70
2022/09/29 10:29:23;;;;;;;;;;;15.70;99.90;;;;;;4951789;29;19927;-69
2022/09/29 10:32:02;;;;;;;;;;;15.90;99.90;;;;;;4951884;28;19926;-69
2022/09/29 10:34:29;;;;;;;;;;;16.20;99.90;;;;;;4951437;29;19933;-68
2022/09/29 10:36:57;;;;;;;;;;;16.20;99.90;;;;;;4951970;29;19926;-69
2022/09/29 10:39:31;;;;;;;;;;;16.20;99.90;;;;;;4951364;29;19926;-70
2022/09/29 10:41:58;;;;;;;;;;;16.50;99.90;;;;;;4951671;29;20444;-68
2022/09/29 10:44:30;;;;;;;;;;;16.70;99.90;;;;;;4951571;29;19930;-70
2022/09/29 10:46:57;;;;;;;;;;;17.10;99.90;;;;;;4951740;29;19933;-70
2022/09/29 10:49:27;;;;;;;;;;;17.20;99.90;;;;;;4951144;29;19926;-69
2022/09/29 10:51:56;;;;;;;;;;;17.30;99.90;;;;;;4951243;28;19931;-70
2022/09/29 10:54:25;;;;;;;;;;;17.60;99.90;;;;;;4951387;29;19978;-70
2022/09/29 10:56:53;;;;;;;;;;;17.90;99.90;;;;;;4951734;29;19996;-69
2022/09/29 10:59:20;;;;;;;;;;;18.20;99.90;;;;;;4951673;29;19926;-69
2022/09/29 11:01:49;;;;;;;;;;;18.40;99.90;;;;;;4951757;29;20007;-66
2022/09/29 11:04:19;;;;;;;;;;;18.70;99.90;;;;;;4951328;29;20305;-66
2022/09/29 11:06:47;;;;;;;;;;;19.00;99.90;;;;;;4963468;28;19926;-66
2022/09/29 11:09:28;;;;;;;;;;;19.10;99.90;;;;;;4951826;29;19958;-66
2022/09/29 11:11:56;;;;;;;;;;;19.40;99.90;;;;;;4951295;29;19930;-67
2022/09/29 11:14:24;;;;;;;;;;;19.80;99.90;;;;;;4951302;29;19966;-66
2022/09/29 11:16:52;;;;;;;;;;;24.30;99.90;;;;;;4951114;29;19930;-67
2022/09/29 11:19:19;;;;;;;;;;;28.10;99.90;;;;;;4950772;29;20371;-66
2022/09/29 11:21:54;;;;;;;;;;;29.80;99.90;;;;;;4951634;28;19930;-66
2022/09/29 11:24:26;;;;;;;;;;;31.70;99.90;;;;;;4951108;29;19958;-66
2022/09/29 11:26:54;;;;;;;;;;;32.50;99.90;;;;;;4951688;28;19930;-68
2022/09/29 11:29:27;;;;;;;;;;;33.70;99.90;;;;;;4950570;28;19954;-66
2022/09/29 11:32:02;;;;;;;;;;;34.70;99.90;;;;;;4950506;28;19927;-67
2022/09/29 11:34:46;;;;;;;;;;;35.60;99.90;;;;;;4950651;28;19933;-67
2022/09/29 11:37:20;;;;;;;;;;;36.20;99.90;;;;;;4953372;29;19931;-67
2022/09/29 11:39:51;;;;;;;;;;;35.60;99.90;;;;;;4953979;29;19926;-67
2022/09/29 11:42:24;;;;;;;;;;;34.90;99.90;;;;;;4951314;29;20017;-66
2022/09/29 11:44:58;;;;;;;;;;;35.20;99.90;;;;;;4954227;29;19934;-67
2022/09/29 11:47:35;;;;;;;;;;;36.00;99.90;;;;;;4955244;28;20393;-66
2022/09/29 11:50:11;;;;;;;;;;;33.90;99.90;;;;;;4953842;29;19946;-67
2022/09/29 11:52:47;;;;;;;;;;;35.50;99.90;;;;;;4954272;29;19933;-67
2022/09/29 11:55:26;;;;;;;;;;;36.90;99.60;;;;;;4954686;28;20290;-66
2022/09/29 11:57:58;;;;;;;;;;;37.60;99.40;;;;;;4954396;28;19927;-66
2022/09/29 12:00:34;;;;;;;;;;;38.10;98.80;;;;;;4953621;29;19926;-66
2022/09/29 12:03:19;;;;;;;;;;;38.30;99.50;;;;;;4952017;28;19937;-65
2022/09/29 12:05:52;;;;;;;;;;;38.70;98.00;;;;;;4952583;28;19969;-67
2022/09/29 12:08:25;;;;;;;;;;;38.50;98.30;;;;;;4952313;29;19926;-66
2022/09/29 12:10:56;;;;;;;;;;;37.00;98.30;;;;;;4952308;28;19954;-66
2022/09/29 12:13:31;;;;;;;;;;;36.60;97.80;;;;;;4952244;29;19981;-68
2022/09/29 12:16:00;;;;;;;;;;;36.10;97.40;;;;;;4953090;29;20393;-66
2022/09/29 12:18:31;;;;;;;;;;;34.90;97.00;;;;;;4954264;29;19937;-68
2022/09/29 12:20:58;;;;;;;;;;;32.80;98.10;;;;;;4953888;28;19926;-66
2022/09/29 12:23:28;;;;;;;;;;;30.30;98.40;;;;;;4953904;29;19934;-66
2022/09/29 12:26:00;;;;;;;;;;;28.20;99.20;;;;;;4953993;29;19930;-65
2022/09/29 12:28:29;;;;;;;;;;;26.90;99.90;;;;;;4955339;29;19931;-65
2022/09/29 12:30:58;;;;;;;;;;;26.20;99.90;;;;;;4953771;28;20021;-65
2022/09/29 12:33:29;;;;;;;;;;;26.40;99.90;;;;;;4954990;29;20033;-65
2022/09/29 12:36:01;;;;;;;;;;;29.30;99.60;;;;;;4954049;29;19985;-65
2022/09/29 12:38:34;;;;;;;;;;;31.00;97.80;;;;;;4953521;29;19930;-66
2022/09/29 12:41:03;;;;;;;;;;;32.50;98.20;;;;;;4953236;28;19933;-66
2022/09/29 12:43:32;;;;;;;;;;;33.40;97.60;;;;;;4952996;29;20417;-67
2022/09/29 12:46:00;;;;;;;;;;;35.60;98.00;;;;;;4952948;28;19933;-66
2022/09/29 12:48:33;;;;;;;;;;;35.90;97.90;;;;;;4953541;29;19931;-66
2022/09/29 12:51:01;;;;;;;;;;;33.60;97.10;;;;;;4953102;28;20021;-66
2022/09/29 12:53:31;;;;;;;;;;;31.40;98.00;;;;;;4954422;29;20022;-66
2022/09/29 12:56:01;;;;;;;;;;;30.20;97.40;;;;;;4953212;29;19956;-66
2022/09/29 12:58:31;;;;;;;;;;;28.30;98.80;;;;;;4953237;29;19926;-66
2022/09/29 13:01:01;;;;;;;;;;;28.40;99.70;;;;;;4952941;28;19933;-67
2022/09/29 13:03:42;;;;;;;;;;;28.00;99.10;;;;;;4952628;29;19936;-67
2022/09/29 13:06:24;;;;;;;;;;;26.40;99.00;;;;;;4952889;29;19927;-67
2022/09/29 13:09:02;;;;;;;;;;;25.40;99.90;;;;;;4952892;29;20029;-65
2022/09/29 13:11:40;;;;;;;;;;;24.80;99.90;;;;;;4952746;29;19977;-66
2022/09/29 13:14:17;;;;;;;;;;;23.40;99.90;;;;;;4952979;29;19930;-66
2022/09/29 13:16:59;;;;;;;;;;;22.30;99.90;;;;;;4953002;29;20017;-66
2022/09/29 13:19:35;;;;;;;;;;;21.90;99.90;;;;;;4952667;29;20385;-65
2022/09/29 13:22:11;;;;;;;;;;;21.30;99.90;;;;;;4952768;28;19927;-65
2022/09/29 13:24:44;;;;;;;;;;;20.70;99.90;;;;;;4954100;29;20013;-66
2022/09/29 13:27:26;;;;;;;;;;;20.00;99.90;;;;;;4954194;28;19931;-66
2022/09/29 13:29:55;;;;;;;;;;;19.60;99.90;;;;;;4953602;29;19942;-68
2022/09/29 13:32:22;;;;;;;;;;;19.10;99.90;;;;;;4952279;28;20021;-66
2022/09/29 13:34:55;;;;;;;;;;;18.90;99.90;;;;;;4952843;29;19931;-66
2022/09/29 13:37:23;;;;;;;;;;;18.80;99.90;;;;;;4952807;29;20025;-67
2022/09/29 13:39:56;;;;;;;;;;;18.70;99.90;;;;;;4952379;29;19988;-66
2022/09/29 13:42:28;;;;;;;;;;;18.70;99.90;;;;;;4952255;28;19949;-65
2022/09/29 13:45:15;;;;;;;;;;;18.70;99.90;;;;;;4952133;29;19930;-66
2022/09/29 13:47:45;;;;;;;;;;;18.70;99.90;;;;;;4952609;29;19927;-65
2022/09/29 13:50:30;;;;;;;;;;;18.80;99.90;;;;;;4951864;29;19926;-65
2022/09/29 13:53:12;;;;;;;;;;;18.90;99.90;;;;;;4952038;28;20016;-66
2022/09/29 13:55:50;;;;;;;;;;;18.90;99.90;;;;;;4952467;29;19927;-67
2022/09/29 13:58:21;;;;;;;;;;;18.90;99.90;;;;;;4951429;28;20016;-66
2022/09/29 14:00:48;;;;;;;;;;;18.70;99.90;;;;;;4951932;28;20021;-66
2022/09/29 14:03:23;;;;;;;;;;;18.60;99.90;;;;;;4951402;29;20353;-66
2022/09/29 14:05:54;;;;;;;;;;;18.60;99.90;;;;;;4953651;29;20420;-66
2022/09/29 14:08:26;;;;;;;;;;;18.50;99.90;;;;;;4951040;29;19927;-66
2022/09/29 14:10:59;;;;;;;;;;;18.40;99.90;;;;;;4950433;28;19932;-65
2022/09/29 14:13:28;;;;;;;;;;;18.30;99.90;;;;;;4951104;29;19927;-65
2022/09/29 14:16:09;;;;;;;;;;;18.20;99.90;;;;;;4951673;29;19966;-68
2022/09/29 14:18:37;;;;;;;;;;;18.10;99.90;;;;;;4953369;28;19956;-66
2022/09/29 14:21:05;;;;;;;;;;;17.90;99.90;;;;;;4951572;28;19965;-65
2022/09/29 14:23:49;;;;;;;;;;;17.70;99.90;;;;;;4951459;29;19926;-66
2022/09/29 14:26:42;;;;;;;;;;;17.60;99.90;;;;;;4951787;29;19933;-66
2022/09/29 14:29:13;;;;;;;;;;;17.60;99.90;;;;;;4951423;29;19969;-66
2022/09/29 14:31:42;;;;;;;;;;;17.60;99.90;;;;;;4952028;28;19927;-66
2022/09/29 14:34:13;;;;;;;;;;;17.70;99.90;;;;;;4951601;29;19937;-66
2022/09/29 14:36:44;;;;;;;;;;;17.70;99.90;;;;;;4951883;29;20020;-66
2022/09/29 14:39:11;;;;;;;;;;;17.80;99.90;;;;;;4952776;29;20021;-65
2022/09/29 14:41:40;;;;;;;;;;;17.90;99.90;;;;;;4952552;28;20041;-66
2022/09/29 14:44:10;;;;;;;;;;;18.00;99.90;;;;;;4952388;29;19927;-65
2022/09/29 14:52:18;;;;;;;;;;;18.60;99.90;;;;;;4947399;29;19923;-65
2022/09/29 14:54:54;;;;;;;;;;;18.70;99.90;;;;;;4951506;29;19977;-65
2022/09/29 14:57:33;;;;;;;;;;;18.70;99.90;;;;;;4951723;29;19927;-65
2022/09/29 15:00:05;;;;;;;;;;;18.70;99.90;;;;;;4951428;29;19999;-64
2022/09/29 15:02:34;;;;;;;;;;;19.30;99.90;;;;;;4952279;28;19981;-64
2022/09/29 15:05:11;;;;;;;;;;;20.80;99.90;;;;;;4952676;28;19927;-65
2022/09/29 15:07:39;;;;;;;;;;;21.70;99.90;;;;;;4952397;29;19926;-65
2022/09/29 15:10:19;;;;;;;;;;;22.10;99.90;;;;;;4954256;28;19934;-65
2022/09/29 15:12:49;;;;;;;;;;;22.90;99.90;;;;;;4951375;28;19930;-65
2022/09/29 15:15:35;;;;;;;;;;;24.70;99.90;;;;;;4956157;29;19927;-66
2022/09/29 15:18:11;;;;;;;;;;;26.10;99.90;;;;;;4956155;29;19926;-65
2022/09/29 15:20:51;;;;;;;;;;;27.20;99.90;;;;;;4956005;29;19930;-66
2022/09/29 15:23:29;;;;;;;;;;;27.00;99.90;;;;;;4955792;29;19979;-65
2022/09/29 15:25:56;;;;;;;;;;;27.10;99.90;;;;;;4955978;29;19974;-66
2022/09/29 15:28:28;;;;;;;;;;;27.00;99.90;;;;;;4955753;29;19977;-66
2022/09/29 15:30:58;;;;;;;;;;;27.00;99.90;;;;;;4955792;28;19934;-67
2022/09/29 15:33:26;;;;;;;;;;;27.00;99.90;;;;;;4955446;29;19930;-65
2022/09/29 15:35:56;;;;;;;;;;;26.90;99.90;;;;;;4955312;29;19933;-66
2022/09/29 15:38:36;;;;;;;;;;;26.70;99.90;;;;;;4955515;29;20025;-66
2022/09/29 15:41:04;;;;;;;;;;;26.80;99.90;;;;;;4955011;28;19933;-66
2022/09/29 15:43:38;;;;;;;;;;;27.10;99.90;;;;;;4955193;29;19978;-71
2022/09/29 15:46:15;;;;;;;;;;;27.40;99.90;;;;;;4955728;29;19933;-66
2022/09/29 15:48:57;;;;;;;;;;;27.00;99.90;;;;;;4955624;29;19926;-66
2022/09/29 15:51:24;;;;;;;;;;;27.10;99.90;;;;;;4955378;28;19933;-68
2022/09/29 15:53:51;;;;;;;;;;;27.50;99.90;;;;;;4955332;29;19926;-66
2022/09/29 15:56:18;;;;;;;;;;;27.70;99.90;;;;;;4955416;29;19927;-65
2022/09/29 15:58:46;;;;;;;;;;;27.60;99.90;;;;;;4955106;29;19966;-65
2022/09/29 16:01:17;;;;;;;;;;;27.20;99.90;;;;;;4955029;28;19930;-66
2022/09/29 16:03:49;;;;;;;;;;;26.90;99.90;;;;;;4955178;29;19926;-65
2022/09/29 16:06:18;;;;;;;;;;;26.50;99.90;;;;;;4955085;29;19930;-66
2022/09/29 16:08:47;;;;;;;;;;;25.90;99.90;;;;;;4954637;29;19927;-64
2022/09/29 16:11:20;;;;;;;;;;;25.60;99.90;;;;;;4954573;28;20412;-66
2022/09/29 16:13:49;;;;;;;;;;;25.20;99.90;;;;;;4954686;29;19932;-64
2022/09/29 16:16:18;;;;;;;;;;;24.70;99.90;;;;;;4955241;29;19930;-66
2022/09/29 16:18:46;;;;;;;;;;;24.40;99.90;;;;;;4955132;29;19934;-68
2022/09/29 16:21:16;;;;;;;;;;;23.70;99.90;;;;;;4950606;28;19927;-67
2022/09/29 16:23:44;;;;;;;;;;;22.60;99.90;;;;;;4951133;29;19934;-66
2022/09/29 16:26:13;;;;;;;;;;;21.50;99.90;;;;;;4936007;29;19930;-67
2022/09/29 16:28:42;;;;;;;;;;;20.70;99.90;;;;;;4951444;29;19926;-67
2022/09/29 16:31:17;;;;;;;;;;;20.20;99.90;;;;;;4945373;29;19926;-69
2022/09/29 16:33:46;;;;;;;;;;;19.70;99.90;;;;;;4953419;29;19933;-67
2022/09/29 16:36:14;;;;;;;;;;;19.30;99.90;;;;;;4953603;29;19927;-68
2022/09/29 16:38:44;;;;;;;;;;;18.90;99.90;;;;;;4953330;29;20407;-69
2022/09/29 16:41:19;;;;;;;;;;;18.50;99.90;;;;;;4953584;28;19981;-67
2022/09/29 16:43:46;;;;;;;;;;;18.10;99.90;;;;;;4954115;28;19974;-67
2022/09/29 16:46:17;;;;;;;;;;;17.80;99.90;;;;;;4954263;28;19932;-67
2022/09/29 16:48:46;;;;;;;;;;;17.50;99.90;;;;;;4954210;29;19934;-67
2022/09/29 16:51:14;;;;;;;;;;;17.20;99.90;;;;;;4953450;28;19930;-67
2022/09/29 16:53:41;;;;;;;;;;;17.00;99.90;;;;;;4953893;29;20452;-67
2022/09/29 16:56:09;;;;;;;;;;;16.70;99.90;;;;;;4954047;29;20457;-71
2022/09/29 16:58:36;;;;;;;;;;;16.50;99.90;;;;;;4954286;28;20541;-70
2022/09/29 17:01:03;;;;;;;;;;;16.20;99.90;;;;;;4953545;28;19934;-66
2022/09/29 17:03:30;;;;;;;;;;;15.80;99.90;;;;;;4953027;29;19934;-68
2022/09/29 17:06:02;;;;;;;;;;;15.60;99.90;;;;;;4953812;29;19931;-68
2022/09/29 17:08:30;;;;;;;;;;;15.50;99.90;;;;;;4953688;29;20385;-68
2022/09/29 17:10:57;;;;;;;;;;;15.30;99.90;;;;;;4940938;28;19996;-74
2022/09/29 17:13:24;;;;;;;;;;;15.10;99.90;;;;;;4951449;29;19931;-68
2022/09/29 17:15:52;;;;;;;;;;;14.90;99.90;;;;;;4953697;29;19966;-68
2022/09/29 17:18:19;;;;;;;;;;;14.70;99.90;;;;;;4953685;29;20385;-69
2022/09/29 17:20:46;;;;;;;;;;;14.50;99.90;;;;;;4952334;28;19986;-68
2022/09/29 17:23:14;;;;;;;;;;;14.40;99.90;;;;;;4951981;29;19930;-68
2022/09/29 17:25:43;;;;;;;;;;;14.20;99.90;;;;;;4953595;28;19985;-64
2022/09/29 17:28:11;;;;;;;;;;;14.00;99.90;;;;;;4955662;28;20021;-70
2022/09/29 17:30:39;;;;;;;;;;;13.90;99.90;;;;;;4953015;29;19930;-69
2022/09/29 17:33:06;;;;;;;;;;;13.70;99.90;;;;;;4953755;28;19926;-64
2022/09/29 17:35:34;;;;;;;;;;;13.60;99.90;;;;;;4953975;29;19928;-65
2022/09/29 17:38:01;;;;;;;;;;;13.40;99.90;;;;;;4953733;29;19937;-69
2022/09/29 17:40:33;;;;;;;;;;;13.30;99.90;;;;;;4953309;29;19926;-68
2022/09/29 17:43:00;;;;;;;;;;;13.20;99.90;;;;;;4953330;28;19933;-68
2022/09/29 17:45:28;;;;;;;;;;;13.10;99.90;;;;;;4953388;29;20374;-69